Addison, TX (75001)

4:49 AM CST on February 09, 2016 (GMT -0600)
Addison | | Change Station
CLOSE
Current Station
Personal Weather Station
Location: Addison, TX
Elevation: 617 ft
Nearby Weather Stations
Active Advisory: Flood Warning

Elev 617 ft 32.94 °N, 96.84 °W | Updated 2 seconds ago

Clear
Clear
37.4 °F
Feels Like 37 °F
N
1.4
Wind Variable Wind from NW
Gusts 3.0 mph

Today
High -- | Low -- °F
--% Chance of Precip.
Yesterday
High -- | Low -- °F
Precip. -- in
Pressure 30.30 in
Visibility 10.0 miles
Clouds Clear
Windchill 37 °F
Dew Point 14 °F
Humidity 37%
Rainfall 0.00 in
Snow Depth Not available.
7:16 AM 6:06 PM
New Moon, 1% visible
METAR KADS 091035Z AUTO 29003KT 10SM CLR 04/M09 A3030 RMK AO2 T00371095
Pressure 30.30 in
Visibility 10.0 miles
Clouds Clear
Windchill 37 °F
Dew Point 14 °F
Humidity 37%
Rainfall 0.00 in
Snow Depth Not available.
7:16 AM 6:06 PM
New Moon, 1% visible
METAR KADS 091035Z AUTO 29003KT 10SM CLR 04/M09 A3030 RMK AO2 T00371095

10-Day Weather Forecast

Almanac

Astronomy

Feb. 09, 2016 Rise Set
Actual Time
Civil Twilight
Nautical Twilight
Astronomical Twilight
Moon
Length of Visible Light
Length of Day
Tomorrow will be .
, % of the Moon is Illuminated

Today's Extremes

State Highs State Lows

Community

WunderPhotos

Upload Photos

1,891,565 photos uploaded!

WunderBlog® & News

Nearby

Air Quality

  Air Quality AQ Index Pollutant
Not available.

Snow Depth

Station Depth Elevation

Earthquake Activity

City Distance Mag. Time & Date
Minimum magnitude displayed is 2.5.

Coastal Water Temperatures

Place Temperature

Stations

Nearby Weather Stations

Station Location Temp. Windchill Dew Point Humidity Wind Precip. Elev Updated Type
                   

Watches & Warnings

Flood Warning
Issued: 6:42 PM CST Feb. 8, 2016 – National Weather Service

The Flood Warning continues for
the Elm Fork Trinity River near Carrollton.
* At 0615 PM Monday the stage was 8.37 feet.
* Flood stage is 8 feet.
* Minor flooding is occurring and minor flooding is forecast.
* Forecast... the river will remain near 8.4 feet for the next few
days.


Lat... Lon 3300 9700 3287 9699 3287 9687 3300 9688